createdAt,value
2023-03-06T00:00:38.256Z,21
2023-03-06T00:01:38.250Z,23
2023-03-06T00:02:38.281Z,21
2023-03-06T00:03:38.397Z,20
2023-03-06T00:04:38.250Z,20
2023-03-06T00:05:38.278Z,19
2023-03-06T00:06:38.256Z,20
2023-03-06T00:07:38.248Z,20
2023-03-06T00:08:38.296Z,21
2023-03-06T00:09:38.259Z,19
2023-03-06T00:10:38.260Z,19
2023-03-06T00:11:38.265Z,19
2023-03-06T00:12:38.258Z,20
2023-03-06T00:13:38.261Z,20
2023-03-06T00:14:38.263Z,18
2023-03-06T00:15:38.277Z,20
2023-03-06T00:16:38.360Z,18
2023-03-06T00:17:38.251Z,16
2023-03-06T00:18:38.269Z,17
2023-03-06T00:19:38.263Z,17
2023-03-06T00:20:38.253Z,18
2023-03-06T00:21:38.254Z,18
2023-03-06T00:22:38.261Z,17
2023-03-06T00:23:38.267Z,18
2023-03-06T00:24:38.263Z,16
2023-03-06T00:25:38.258Z,17
2023-03-06T00:26:38.261Z,16
2023-03-06T00:27:38.264Z,16
2023-03-06T00:28:38.257Z,16
2023-03-06T00:29:38.254Z,16
2023-03-06T00:30:38.252Z,16
2023-03-06T00:31:38.326Z,15
2023-03-06T00:32:38.286Z,14
2023-03-06T00:33:38.283Z,17
2023-03-06T00:34:38.248Z,18
2023-03-06T00:35:38.293Z,16
2023-03-06T00:36:38.253Z,16
2023-03-06T00:37:38.243Z,15
2023-03-06T00:38:38.286Z,16
2023-03-06T00:39:38.262Z,16
2023-03-06T00:40:38.258Z,16
2023-03-06T00:41:38.253Z,18
2023-03-06T00:42:38.257Z,17
2023-03-06T00:43:38.260Z,16
2023-03-06T00:44:38.257Z,16
2023-03-06T00:45:38.360Z,17
2023-03-06T00:46:38.252Z,16
2023-03-06T00:47:38.275Z,17
2023-03-06T00:48:38.263Z,17
2023-03-06T00:49:38.252Z,18
2023-03-06T00:50:38.251Z,18
2023-03-06T00:51:38.263Z,17
2023-03-06T00:52:38.259Z,17
2023-03-06T00:53:38.260Z,17
2023-03-06T00:54:38.254Z,19
2023-03-06T00:55:38.255Z,17
2023-03-06T00:56:38.258Z,18
2023-03-06T00:57:38.271Z,21
2023-03-06T00:58:38.267Z,18
2023-03-06T01:00:38.392Z,19
2023-03-06T01:01:38.255Z,19
2023-03-06T01:02:38.266Z,19
2023-03-06T01:04:38.308Z,18
2023-03-06T01:05:38.258Z,20
2023-03-06T01:06:38.251Z,20
2023-03-06T01:07:38.263Z,19
2023-03-06T01:08:38.258Z,18
2023-03-06T01:09:38.258Z,19
2023-03-06T01:10:38.248Z,20
2023-03-06T01:11:38.250Z,20
2023-03-06T01:12:38.261Z,17
2023-03-06T01:13:38.256Z,18
2023-03-06T01:14:38.251Z,20
2023-03-06T01:15:38.249Z,19
2023-03-06T01:16:38.323Z,18
2023-03-06T01:17:38.250Z,19
2023-03-06T01:18:38.251Z,20
2023-03-06T01:19:38.254Z,17
2023-03-06T01:20:38.261Z,18
2023-03-06T01:21:38.274Z,17
2023-03-06T01:22:38.254Z,19
2023-03-06T01:23:38.254Z,19
2023-03-06T01:24:38.410Z,17
2023-03-06T01:25:38.251Z,20
2023-03-06T01:26:38.249Z,18
2023-03-06T01:27:38.256Z,17
2023-03-06T01:28:38.250Z,17
2023-03-06T01:29:38.252Z,16
2023-03-06T01:30:38.260Z,18
2023-03-06T01:31:38.281Z,17
2023-03-06T01:32:38.379Z,16
2023-03-06T01:33:38.296Z,17
2023-03-06T01:34:38.265Z,17
2023-03-06T01:35:38.400Z,17
2023-03-06T01:36:38.260Z,20
2023-03-06T01:37:38.251Z,19
2023-03-06T01:38:38.250Z,23
2023-03-06T01:39:38.262Z,19
2023-03-06T01:40:38.388Z,17
2023-03-06T01:41:38.280Z,16
2023-03-06T01:42:38.250Z,20
2023-03-06T01:43:38.273Z,21
2023-03-06T01:44:38.256Z,21
2023-03-06T01:45:38.294Z,20
2023-03-06T01:46:38.259Z,20
2023-03-06T01:47:38.322Z,22
2023-03-06T01:48:38.253Z,20
2023-03-06T01:49:38.257Z,22
2023-03-06T01:50:38.265Z,22
2023-03-06T01:51:38.261Z,21
2023-03-06T01:52:38.252Z,23
2023-03-06T01:53:38.264Z,22
2023-03-06T01:54:38.272Z,21
2023-03-06T01:55:38.257Z,24
2023-03-06T01:56:38.257Z,21
2023-03-06T01:57:38.260Z,24
2023-03-06T01:58:38.264Z,21
2023-03-06T01:59:38.261Z,23
2023-03-06T02:00:38.279Z,21
2023-03-06T02:01:38.270Z,23
2023-03-06T02:02:38.385Z,22
2023-03-06T02:03:38.258Z,22
2023-03-06T02:04:38.268Z,26
2023-03-06T02:05:38.264Z,27
2023-03-06T02:06:38.279Z,27
2023-03-06T02:07:38.269Z,26
2023-03-06T02:08:38.260Z,25
2023-03-06T02:09:38.281Z,27
2023-03-06T02:10:38.263Z,27
2023-03-06T02:11:38.325Z,26
2023-03-06T02:12:38.530Z,27
2023-03-06T02:13:38.274Z,27
2023-03-06T02:14:38.269Z,24
2023-03-06T02:15:38.266Z,28
2023-03-06T02:16:38.341Z,25
2023-03-06T02:17:38.268Z,27
2023-03-06T02:18:38.268Z,24
2023-03-06T02:19:38.272Z,25
2023-03-06T02:20:38.270Z,25
2023-03-06T02:21:38.266Z,25
2023-03-06T02:22:38.266Z,23
2023-03-06T02:23:38.268Z,24
2023-03-06T02:24:38.278Z,25
2023-03-06T02:25:38.288Z,22
2023-03-06T02:26:38.359Z,22
2023-03-06T02:27:38.267Z,22
2023-03-06T02:28:38.276Z,23
2023-03-06T02:29:38.258Z,22
2023-03-06T02:30:38.328Z,21
2023-03-06T02:31:38.270Z,20
2023-03-06T02:32:38.410Z,20
2023-03-06T02:33:38.272Z,21
2023-03-06T02:34:38.272Z,21
2023-03-06T02:35:38.382Z,22
2023-03-06T02:36:38.257Z,20
2023-03-06T02:37:38.675Z,20
2023-03-06T02:38:38.286Z,21
2023-03-06T02:39:38.275Z,21
2023-03-06T02:40:38.300Z,20
2023-03-06T02:41:38.359Z,19
2023-03-06T02:42:38.278Z,20
2023-03-06T02:43:38.263Z,20
2023-03-06T02:44:38.265Z,20
2023-03-06T02:45:38.271Z,20
2023-03-06T02:46:38.269Z,20
2023-03-06T02:47:38.304Z,21
2023-03-06T02:48:38.264Z,21
2023-03-06T02:49:38.263Z,20
2023-03-06T02:50:38.262Z,22
2023-03-06T02:51:38.271Z,21
2023-03-06T02:52:38.271Z,21
2023-03-06T02:53:38.280Z,21
2023-03-06T02:54:38.266Z,19
2023-03-06T02:55:38.256Z,20
2023-03-06T02:56:38.251Z,20
2023-03-06T02:57:38.298Z,20
2023-03-06T02:58:38.361Z,22
2023-03-06T02:59:38.263Z,23
2023-03-06T03:00:39.961Z,22
2023-03-06T03:01:38.433Z,23
2023-03-06T03:02:38.294Z,21
2023-03-06T03:03:38.280Z,21
2023-03-06T03:04:38.374Z,23
2023-03-06T03:05:38.254Z,24
2023-03-06T03:06:38.248Z,24
2023-03-06T03:07:38.252Z,24
2023-03-06T03:08:38.375Z,22
2023-03-06T03:09:38.266Z,24
2023-03-06T03:10:38.255Z,24
2023-03-06T03:11:38.261Z,23
2023-03-06T03:12:38.262Z,23
2023-03-06T03:13:38.260Z,24
2023-03-06T03:14:38.263Z,22
2023-03-06T03:15:38.353Z,21
2023-03-06T03:16:39.242Z,22
2023-03-06T03:17:38.296Z,22
2023-03-06T03:18:38.261Z,21
2023-03-06T03:19:38.272Z,21
2023-03-06T03:20:38.264Z,21
2023-03-06T03:21:38.263Z,22
2023-03-06T03:22:38.270Z,23
2023-03-06T03:23:38.282Z,23
2023-03-06T03:24:38.358Z,22
2023-03-06T03:25:38.270Z,20
2023-03-06T03:26:38.267Z,23
2023-03-06T03:27:38.301Z,23
2023-03-06T03:28:38.260Z,21
2023-03-06T03:29:38.260Z,22
2023-03-06T03:30:38.264Z,22
2023-03-06T03:31:38.263Z,20
2023-03-06T03:32:38.398Z,20
2023-03-06T03:33:38.266Z,23
2023-03-06T03:34:38.272Z,21
2023-03-06T03:35:38.345Z,21
2023-03-06T03:36:38.258Z,21
2023-03-06T03:37:38.265Z,23
2023-03-06T03:38:38.262Z,23
2023-03-06T03:39:38.282Z,21
2023-03-06T03:40:38.270Z,22
2023-03-06T03:41:38.281Z,23
2023-03-06T03:42:38.271Z,21
2023-03-06T03:43:38.272Z,23
2023-03-06T03:44:38.279Z,20
2023-03-06T03:45:38.270Z,21
2023-03-06T03:46:38.367Z,20
2023-03-06T03:47:38.271Z,21
2023-03-06T03:48:38.283Z,20
2023-03-06T03:49:38.282Z,23
2023-03-06T03:50:38.404Z,20
2023-03-06T03:51:38.271Z,21
2023-03-06T03:52:38.407Z,21
2023-03-06T03:53:38.268Z,21
2023-03-06T03:54:38.278Z,19
2023-03-06T03:55:38.267Z,20
2023-03-06T03:56:38.300Z,21
2023-03-06T03:57:38.265Z,22
2023-03-06T03:58:38.268Z,21
2023-03-06T03:59:38.261Z,19
2023-03-06T04:00:38.269Z,20
2023-03-06T04:01:39.700Z,18
2023-03-06T04:02:38.263Z,21
2023-03-06T04:03:38.262Z,20
2023-03-06T04:04:38.319Z,20
2023-03-06T04:05:38.301Z,20
2023-03-06T04:06:38.252Z,20
2023-03-06T04:07:38.270Z,18
2023-03-06T04:08:38.260Z,16
2023-03-06T04:09:38.272Z,18
2023-03-06T04:10:38.287Z,17
2023-03-06T04:11:38.270Z,18
2023-03-06T04:12:38.283Z,19
2023-03-06T04:13:38.269Z,15
2023-03-06T04:14:38.263Z,17
2023-03-06T04:15:38.264Z,15
2023-03-06T04:16:38.264Z,15
2023-03-06T04:17:38.285Z,16
2023-03-06T04:18:38.381Z,17
2023-03-06T04:19:38.262Z,17
2023-03-06T04:20:38.270Z,17
2023-03-06T04:21:38.350Z,16
2023-03-06T04:22:38.269Z,17
2023-03-06T04:23:38.269Z,18
2023-03-06T04:24:38.260Z,18
2023-03-06T04:25:38.264Z,16
2023-03-06T04:26:38.263Z,16
2023-03-06T04:27:38.277Z,19
2023-03-06T04:28:38.274Z,17
2023-03-06T04:29:38.277Z,18
2023-03-06T04:30:38.264Z,19
2023-03-06T04:31:38.325Z,18
2023-03-06T04:32:38.341Z,18
2023-03-06T04:33:38.269Z,18
2023-03-06T04:34:38.282Z,17
2023-03-06T04:35:38.319Z,20
2023-03-06T04:36:38.257Z,19
2023-03-06T04:37:38.269Z,18
2023-03-06T04:38:38.293Z,18
2023-03-06T04:39:38.291Z,20
2023-03-06T04:40:38.274Z,18
2023-03-06T04:41:38.292Z,18
2023-03-06T04:42:38.293Z,20
2023-03-06T04:43:38.263Z,20
2023-03-06T04:44:38.272Z,23
2023-03-06T04:45:38.306Z,20
2023-03-06T04:46:38.263Z,21
2023-03-06T04:47:38.277Z,22
2023-03-06T04:48:38.261Z,21
2023-03-06T04:49:38.273Z,19
2023-03-06T04:50:38.268Z,20
2023-03-06T04:51:38.356Z,21
2023-03-06T04:52:38.428Z,21
2023-03-06T04:53:38.268Z,22
2023-03-06T04:54:38.647Z,22
2023-03-06T04:55:38.264Z,23
2023-03-06T04:56:38.330Z,22
2023-03-06T04:57:38.272Z,22
2023-03-06T04:58:38.264Z,23
2023-03-06T04:59:39.334Z,22
2023-03-06T05:00:38.342Z,22
2023-03-06T05:01:38.267Z,20
2023-03-06T05:02:38.261Z,22
2023-03-06T05:03:38.270Z,23
2023-03-06T05:04:38.266Z,22
2023-03-06T05:05:38.285Z,23
2023-03-06T05:06:38.283Z,21
2023-03-06T05:07:38.268Z,22
2023-03-06T05:08:38.268Z,23
2023-03-06T05:09:39.219Z,23
2023-03-06T05:10:38.261Z,23
2023-03-06T05:11:38.271Z,23
2023-03-06T05:12:38.288Z,26
2023-03-06T05:13:38.276Z,25
2023-03-06T05:14:38.279Z,27
2023-03-06T05:15:38.258Z,24
2023-03-06T05:16:38.382Z,26
2023-03-06T05:17:38.271Z,25
2023-03-06T05:18:38.262Z,27
2023-03-06T05:19:38.269Z,27
2023-03-06T05:20:38.264Z,27
2023-03-06T05:21:38.259Z,29
2023-03-06T05:22:38.289Z,29
2023-03-06T05:23:38.261Z,29
2023-03-06T05:24:38.270Z,31
2023-03-06T05:25:38.268Z,33
2023-03-06T05:26:38.264Z,33
2023-03-06T05:27:38.268Z,34
2023-03-06T05:28:38.269Z,34
2023-03-06T05:29:38.270Z,32
2023-03-06T05:30:38.267Z,33
2023-03-06T05:31:38.369Z,33
2023-03-06T05:32:38.349Z,34
2023-03-06T05:33:38.272Z,32
2023-03-06T05:34:38.266Z,38
2023-03-06T05:35:38.329Z,35
2023-03-06T05:36:38.281Z,34
2023-03-06T05:37:38.264Z,34
2023-03-06T05:38:38.270Z,33
2023-03-06T05:39:38.277Z,35
2023-03-06T05:40:38.268Z,33
2023-03-06T05:41:38.266Z,34
2023-03-06T05:42:38.307Z,35
2023-03-06T05:43:38.299Z,34
2023-03-06T05:44:38.281Z,39
2023-03-06T05:45:38.343Z,36
2023-03-06T05:46:38.280Z,38
2023-03-06T05:47:38.280Z,39
2023-03-06T05:48:38.266Z,39
2023-03-06T05:49:38.279Z,41
2023-03-06T05:50:38.275Z,40
2023-03-06T05:51:38.284Z,40
2023-03-06T05:52:38.279Z,39
2023-03-06T05:53:38.347Z,38
2023-03-06T05:54:38.280Z,45
2023-03-06T05:55:38.280Z,40
2023-03-06T05:56:38.262Z,39
2023-03-06T05:57:38.268Z,41
2023-03-06T05:58:38.271Z,40
2023-03-06T05:59:38.274Z,41
2023-03-06T06:00:38.268Z,41
2023-03-06T06:01:38.264Z,42
2023-03-06T06:03:38.372Z,41
2023-03-06T06:04:38.279Z,43
2023-03-06T06:05:38.293Z,41
2023-03-06T06:06:38.275Z,41
2023-03-06T06:07:38.286Z,37
2023-03-06T06:08:38.269Z,38
2023-03-06T06:09:38.274Z,39
2023-03-06T06:10:38.273Z,36
2023-03-06T06:11:38.271Z,38
2023-03-06T06:12:38.267Z,38
2023-03-06T06:13:38.276Z,35
2023-03-06T06:14:38.294Z,38
2023-03-06T06:15:38.296Z,37
2023-03-06T06:16:38.271Z,36
2023-03-06T06:17:38.296Z,36
2023-03-06T06:18:41.023Z,39
2023-03-06T06:19:38.262Z,38
2023-03-06T06:20:38.610Z,38
2023-03-06T06:21:38.274Z,40
2023-03-06T06:22:38.294Z,42
2023-03-06T06:23:38.271Z,44
2023-03-06T06:24:38.269Z,44
2023-03-06T06:25:38.272Z,41
2023-03-06T06:26:38.267Z,47
2023-03-06T06:27:38.264Z,43
2023-03-06T06:28:38.279Z,45
2023-03-06T06:29:38.279Z,45
2023-03-06T06:30:38.264Z,46
2023-03-06T06:31:38.263Z,43
2023-03-06T06:32:38.433Z,47
2023-03-06T06:33:38.266Z,47
2023-03-06T06:34:38.270Z,47
2023-03-06T06:35:38.321Z,47
2023-03-06T06:37:38.265Z,46
2023-03-06T06:38:38.269Z,48
2023-03-06T06:39:38.266Z,50
2023-03-06T06:40:38.279Z,47
2023-03-06T06:41:57.023Z,47
2023-03-06T06:42:40.088Z,47
2023-03-06T06:43:38.269Z,42
2023-03-06T06:44:38.303Z,46
2023-03-06T06:45:38.290Z,44
2023-03-06T06:47:38.480Z,41
2023-03-06T06:48:38.272Z,44
2023-03-06T06:49:38.266Z,44
2023-03-06T06:50:38.277Z,41
2023-03-06T06:51:38.264Z,39
2023-03-06T06:52:38.273Z,40
2023-03-06T06:53:38.266Z,40
2023-03-06T06:54:38.266Z,40
2023-03-06T06:55:38.294Z,38
2023-03-06T06:56:38.274Z,40
2023-03-06T06:57:38.263Z,41
2023-03-06T06:58:38.273Z,41
2023-03-06T06:59:38.264Z,40
2023-03-06T07:00:38.267Z,39
2023-03-06T07:01:38.340Z,40
2023-03-06T07:02:38.266Z,41
2023-03-06T07:03:38.308Z,44
2023-03-06T07:04:40.962Z,42
2023-03-06T07:05:38.276Z,42
2023-03-06T07:06:38.292Z,44
2023-03-06T07:07:38.283Z,48
2023-03-06T07:08:38.276Z,42
2023-03-06T07:09:38.316Z,45
2023-03-06T07:10:38.270Z,48
2023-03-06T07:11:38.270Z,45
2023-03-06T07:12:38.271Z,46
2023-03-06T07:13:38.277Z,47
2023-03-06T07:14:38.269Z,44
2023-03-06T07:15:38.348Z,47
2023-03-06T07:16:38.296Z,48
2023-03-06T07:17:38.272Z,45
2023-03-06T07:18:38.272Z,47
2023-03-06T07:19:38.737Z,49
2023-03-06T07:20:38.275Z,48
2023-03-06T07:21:38.277Z,50
2023-03-06T07:22:50.343Z,50
2023-03-06T07:23:38.270Z,50
2023-03-06T07:24:38.272Z,50
2023-03-06T07:25:38.273Z,51
2023-03-06T07:27:38.331Z,52
2023-03-06T07:28:51.512Z,49
2023-03-06T07:29:38.281Z,52
2023-03-06T07:30:38.270Z,50
2023-03-06T07:31:38.362Z,52
2023-03-06T07:32:38.403Z,52
2023-03-06T07:33:38.275Z,53
2023-03-06T07:34:38.270Z,51
2023-03-06T07:35:38.279Z,55
2023-03-06T07:36:38.276Z,54
2023-03-06T07:37:38.295Z,55
2023-03-06T07:38:38.270Z,53
2023-03-06T07:39:38.277Z,55
2023-03-06T07:40:38.288Z,53
2023-03-06T07:41:38.291Z,54
2023-03-06T07:42:38.287Z,52
2023-03-06T07:43:38.282Z,54
2023-03-06T07:44:38.299Z,52
2023-03-06T07:45:38.279Z,53
2023-03-06T07:46:38.305Z,53
2023-03-06T07:47:38.361Z,54
2023-03-06T07:48:38.280Z,54
2023-03-06T07:49:38.278Z,50
2023-03-06T07:50:38.282Z,52
2023-03-06T07:51:38.279Z,50
2023-03-06T07:52:38.283Z,52
2023-03-06T07:53:38.284Z,51
2023-03-06T07:54:38.288Z,50
2023-03-06T07:55:38.277Z,55
2023-03-06T07:56:38.281Z,51
2023-03-06T07:57:38.278Z,51
2023-03-06T07:58:38.336Z,53
2023-03-06T07:59:38.275Z,47
2023-03-06T08:00:38.277Z,49
2023-03-06T08:01:38.299Z,49
2023-03-06T08:02:38.427Z,50
2023-03-06T08:03:38.335Z,48
2023-03-06T08:04:38.298Z,50
2023-03-06T08:05:38.304Z,49
2023-03-06T08:06:38.279Z,52
2023-03-06T08:07:38.346Z,53
2023-03-06T08:08:38.282Z,49
2023-03-06T08:09:38.276Z,47
2023-03-06T08:10:38.300Z,46
2023-03-06T08:11:38.317Z,59
2023-03-06T08:12:38.296Z,47
2023-03-06T08:13:38.293Z,44
2023-03-06T08:14:38.275Z,46
2023-03-06T08:15:38.273Z,46
2023-03-06T08:16:38.330Z,43
2023-03-06T08:17:38.275Z,45
2023-03-06T08:18:38.305Z,43
2023-03-06T08:19:38.279Z,44
2023-03-06T08:20:38.270Z,42
2023-03-06T08:21:38.271Z,42
2023-03-06T08:22:38.277Z,44
2023-03-06T08:23:38.294Z,44
2023-03-06T08:24:38.278Z,46
2023-03-06T08:25:38.275Z,44
2023-03-06T08:26:38.273Z,43
2023-03-06T08:27:38.271Z,44
2023-03-06T08:28:38.274Z,44
2023-03-06T08:29:38.276Z,46
2023-03-06T08:30:38.280Z,44
2023-03-06T08:31:38.336Z,41
2023-03-06T08:32:38.419Z,42
2023-03-06T08:33:38.279Z,46
2023-03-06T08:34:38.272Z,45
2023-03-06T08:35:38.302Z,44
2023-03-06T08:36:38.280Z,43
2023-03-06T08:37:38.415Z,46
2023-03-06T08:38:38.276Z,41
2023-03-06T08:39:38.271Z,41
2023-03-06T08:40:38.270Z,43
2023-03-06T08:41:38.285Z,43
2023-03-06T08:42:38.277Z,41
2023-03-06T08:43:38.270Z,44
2023-03-06T08:44:38.277Z,43
2023-03-06T08:45:38.311Z,43
2023-03-06T08:46:38.278Z,41
2023-03-06T08:47:38.334Z,42
2023-03-06T08:48:38.287Z,44
2023-03-06T08:49:38.308Z,43
2023-03-06T08:50:38.279Z,44
2023-03-06T08:51:38.284Z,46
2023-03-06T08:52:38.272Z,40
2023-03-06T08:53:43.682Z,42
2023-03-06T08:54:38.363Z,39
2023-03-06T08:55:38.274Z,40
2023-03-06T08:56:38.280Z,42
2023-03-06T08:57:38.272Z,40
2023-03-06T08:58:38.275Z,42
2023-03-06T08:59:38.291Z,40
2023-03-06T09:00:38.443Z,37
2023-03-06T09:01:38.357Z,41
2023-03-06T09:02:38.354Z,40
2023-03-06T09:03:38.279Z,36
2023-03-06T09:04:38.270Z,39
2023-03-06T09:05:38.277Z,42
2023-03-06T09:06:38.281Z,39
2023-03-06T09:07:38.288Z,40
2023-03-06T09:08:38.330Z,43
2023-03-06T09:09:38.278Z,43
2023-03-06T09:10:38.399Z,40
2023-03-06T09:11:38.298Z,42
2023-03-06T09:12:49.429Z,45
2023-03-06T09:13:38.285Z,41
2023-03-06T09:14:38.393Z,42
2023-03-06T09:15:38.276Z,40
2023-03-06T09:16:38.354Z,43
2023-03-06T09:17:38.363Z,41
2023-03-06T09:18:38.268Z,41
2023-03-06T09:19:38.276Z,44
2023-03-06T09:20:38.307Z,45
2023-03-06T09:21:38.273Z,42
2023-03-06T09:22:38.319Z,47
2023-03-06T09:23:38.274Z,46
2023-03-06T09:24:38.284Z,48
2023-03-06T09:25:38.278Z,50
2023-03-06T09:26:46.166Z,46
2023-03-06T09:27:38.280Z,44
2023-03-06T09:28:38.282Z,47
2023-03-06T09:29:38.286Z,46
2023-03-06T09:30:38.346Z,45
2023-03-06T09:31:38.417Z,47
2023-03-06T09:32:38.368Z,47
2023-03-06T09:33:38.282Z,44
2023-03-06T09:34:38.283Z,39
2023-03-06T09:35:38.315Z,37
2023-03-06T09:36:55.043Z,42
2023-03-06T09:37:38.281Z,38
2023-03-06T09:38:38.296Z,35
2023-03-06T09:39:38.282Z,38
2023-03-06T09:40:38.286Z,37
2023-03-06T09:41:38.284Z,37
2023-03-06T09:42:38.286Z,36
2023-03-06T09:44:38.279Z,35
2023-03-06T09:45:38.276Z,33
2023-03-06T09:47:38.289Z,27
2023-03-06T09:48:38.304Z,29
2023-03-06T09:49:38.283Z,29
2023-03-06T09:50:38.285Z,28
2023-03-06T09:52:38.277Z,28
2023-03-06T09:53:38.276Z,28
2023-03-06T09:54:38.303Z,28
2023-03-06T09:55:38.278Z,31
2023-03-06T09:56:38.286Z,29
2023-03-06T09:58:38.286Z,29
2023-03-06T09:59:38.274Z,28
2023-03-06T10:00:38.272Z,27
2023-03-06T10:01:38.279Z,27
2023-03-06T10:03:38.276Z,26
2023-03-06T10:05:38.278Z,26
2023-03-06T10:06:38.280Z,26
2023-03-06T10:08:38.292Z,25
2023-03-06T10:09:38.281Z,25
2023-03-06T10:10:38.277Z,23
2023-03-06T10:11:38.272Z,25
2023-03-06T10:13:38.270Z,25
2023-03-06T10:14:38.274Z,25
2023-03-06T10:15:38.311Z,27
2023-03-06T10:16:38.284Z,25
2023-03-06T10:17:38.297Z,24
2023-03-06T10:18:38.275Z,25
2023-03-06T10:19:38.284Z,25
2023-03-06T10:21:38.271Z,26
2023-03-06T10:22:38.366Z,26
2023-03-06T10:23:38.278Z,25
2023-03-06T10:24:38.280Z,26
2023-03-06T10:26:38.412Z,23
2023-03-06T10:27:38.279Z,24
2023-03-06T10:29:39.207Z,23
2023-03-06T10:30:38.280Z,21
2023-03-06T10:31:38.284Z,22
2023-03-06T10:32:48.301Z,20
2023-03-06T10:34:38.284Z,22
2023-03-06T10:35:38.288Z,22
2023-03-06T10:36:38.278Z,21
2023-03-06T10:37:38.283Z,22
2023-03-06T10:39:38.286Z,21
2023-03-06T10:40:38.290Z,20
2023-03-06T10:42:38.284Z,19
2023-03-06T10:43:38.278Z,21
2023-03-06T10:44:38.286Z,20
2023-03-06T10:45:49.021Z,18
2023-03-06T10:47:38.284Z,18
2023-03-06T10:48:40.811Z,16
2023-03-06T10:49:38.296Z,17
2023-03-06T10:50:38.333Z,17
2023-03-06T10:51:38.284Z,14
2023-03-06T10:52:38.288Z,14
2023-03-06T10:53:38.340Z,16
2023-03-06T10:54:38.301Z,15
2023-03-06T10:55:38.292Z,14
2023-03-06T10:56:38.283Z,12
2023-03-06T10:57:38.294Z,15
2023-03-06T10:58:38.279Z,13
2023-03-06T10:59:38.279Z,14
2023-03-06T11:01:38.345Z,11
2023-03-06T11:02:38.293Z,13
2023-03-06T11:03:38.284Z,11
2023-03-06T11:04:38.408Z,12
2023-03-06T11:06:38.284Z,12
2023-03-06T11:07:38.280Z,13
2023-03-06T11:08:38.283Z,13
2023-03-06T11:09:38.284Z,15
2023-03-06T11:10:38.282Z,13
2023-03-06T11:11:38.282Z,15
2023-03-06T11:12:38.280Z,14
2023-03-06T11:13:38.288Z,14
2023-03-06T11:14:38.308Z,14
2023-03-06T11:15:38.279Z,14
2023-03-06T11:16:38.280Z,14
2023-03-06T11:17:38.284Z,14
2023-03-06T11:18:38.281Z,14
2023-03-06T11:19:38.279Z,14
2023-03-06T11:20:50.437Z,16
2023-03-06T11:22:38.283Z,17
2023-03-06T11:23:38.344Z,16
2023-03-06T11:24:38.357Z,17
2023-03-06T11:25:38.293Z,16
2023-03-06T11:27:38.288Z,16
2023-03-06T11:28:38.289Z,18
2023-03-06T11:30:38.351Z,16
2023-03-06T11:31:38.350Z,16
2023-03-06T11:32:38.318Z,17
2023-03-06T11:33:38.280Z,15
2023-03-06T11:34:38.277Z,15
2023-03-06T11:35:38.339Z,14
2023-03-06T11:36:38.280Z,15
2023-03-06T11:37:38.285Z,13
2023-03-06T11:38:38.275Z,14
2023-03-06T11:39:38.277Z,13
2023-03-06T11:40:38.296Z,13
2023-03-06T11:41:38.294Z,13
2023-03-06T11:43:38.276Z,13
2023-03-06T11:44:38.283Z,13
2023-03-06T11:45:38.278Z,13
2023-03-06T11:46:38.306Z,13
2023-03-06T11:48:38.274Z,12
2023-03-06T11:49:38.285Z,15
2023-03-06T11:51:38.272Z,14
2023-03-06T11:52:38.275Z,12
2023-03-06T11:53:38.338Z,12
2023-03-06T11:54:38.287Z,12
2023-03-06T11:56:38.301Z,13
2023-03-06T11:57:38.282Z,12
2023-03-06T11:59:38.298Z,13
2023-03-06T12:00:38.446Z,15
2023-03-06T12:02:38.292Z,14
2023-03-06T12:03:38.280Z,15
2023-03-06T12:04:38.294Z,17
2023-03-06T12:05:38.414Z,17
2023-03-06T12:07:38.283Z,17
2023-03-06T12:08:38.288Z,18
2023-03-06T12:09:38.297Z,18
2023-03-06T12:10:38.396Z,19
2023-03-06T12:11:38.288Z,18
2023-03-06T12:12:38.288Z,19
2023-03-06T12:13:38.296Z,21
2023-03-06T12:15:38.471Z,19
2023-03-06T12:16:38.363Z,19
2023-03-06T12:17:38.310Z,18
2023-03-06T12:18:38.303Z,17
2023-03-06T12:20:38.455Z,18
2023-03-06T12:21:38.288Z,17
2023-03-06T12:23:38.284Z,18
2023-03-06T12:24:38.288Z,16
2023-03-06T12:25:38.281Z,16
2023-03-06T12:26:38.316Z,18
2023-03-06T12:36:39.432Z,13
2023-03-06T12:37:38.281Z,13
2023-03-06T12:43:40.051Z,13
2023-03-06T12:44:38.286Z,15
2023-03-06T12:45:38.465Z,15
2023-03-06T12:46:38.278Z,13
2023-03-06T12:47:38.286Z,13
2023-03-06T12:48:38.289Z,13
2023-03-06T12:49:38.291Z,15
2023-03-06T12:50:38.296Z,12
2023-03-06T12:51:38.295Z,13
2023-03-06T12:52:38.292Z,14
2023-03-06T12:53:38.295Z,12
2023-03-06T12:55:38.294Z,12
2023-03-06T12:56:38.292Z,11
2023-03-06T12:57:38.320Z,11
2023-03-06T12:58:38.292Z,12
2023-03-06T12:59:38.293Z,11
2023-03-06T13:00:38.289Z,9
2023-03-06T13:01:38.326Z,10
2023-03-06T13:02:38.305Z,9
2023-03-06T13:03:38.302Z,9
2023-03-06T13:04:38.294Z,9
2023-03-06T13:05:38.306Z,10
2023-03-06T13:06:45.076Z,10
2023-03-06T13:07:38.304Z,9
2023-03-06T13:08:38.290Z,10
2023-03-06T13:09:38.286Z,10
2023-03-06T13:10:38.298Z,11
2023-03-06T13:12:38.287Z,11
2023-03-06T13:13:38.312Z,11
2023-03-06T13:14:42.406Z,10
2023-03-06T13:15:38.345Z,9
2023-03-06T13:17:38.287Z,10
2023-03-06T13:18:38.292Z,8
2023-03-06T13:20:38.296Z,8
2023-03-06T13:21:38.311Z,9
2023-03-06T13:22:38.338Z,10
2023-03-06T13:23:38.362Z,8
2023-03-06T13:25:39.968Z,8
2023-03-06T13:26:38.289Z,8
2023-03-06T13:28:38.315Z,9
2023-03-06T13:29:38.410Z,9
2023-03-06T13:30:38.352Z,8
2023-03-06T13:31:38.359Z,9
2023-03-06T13:33:38.296Z,8
2023-03-06T13:34:38.291Z,8
2023-03-06T13:35:38.316Z,8
2023-03-06T13:36:39.823Z,7
2023-03-06T13:38:38.290Z,7
2023-03-06T13:41:38.302Z,8
2023-03-06T13:42:38.677Z,7
2023-03-06T13:43:38.294Z,7
2023-03-06T13:44:38.296Z,8
2023-03-06T13:46:38.325Z,6
2023-03-06T13:48:01.351Z,7
2023-03-06T13:49:38.292Z,6
2023-03-06T13:50:38.296Z,5
2023-03-06T13:51:38.402Z,4
2023-03-06T13:52:38.301Z,5
2023-03-06T13:54:38.297Z,6
2023-03-06T13:55:38.293Z,5
2023-03-06T13:56:38.299Z,5
2023-03-06T13:57:38.288Z,5
2023-03-06T13:59:38.318Z,6
2023-03-06T14:02:38.459Z,6
2023-03-06T14:03:38.293Z,5
2023-03-06T14:04:38.318Z,7
2023-03-06T14:05:38.295Z,6
2023-03-06T14:06:38.306Z,6
2023-03-06T14:08:38.290Z,7
2023-03-06T14:09:38.294Z,4
2023-03-06T14:10:38.348Z,6
2023-03-06T14:11:38.291Z,6
2023-03-06T14:12:38.299Z,5
2023-03-06T14:13:45.452Z,5
2023-03-06T14:14:38.291Z,6
2023-03-06T14:15:38.388Z,5
2023-03-06T14:16:49.388Z,4
2023-03-06T14:17:38.301Z,5
2023-03-06T14:18:38.304Z,4
2023-03-06T14:19:38.291Z,4
2023-03-06T14:22:38.308Z,4
2023-03-06T14:23:38.371Z,4
2023-03-06T14:24:38.294Z,3
2023-03-06T14:26:38.295Z,4
2023-03-06T14:27:38.307Z,3
2023-03-06T14:28:38.298Z,3
2023-03-06T14:29:38.296Z,5
2023-03-06T14:30:38.322Z,4
2023-03-06T14:31:38.412Z,4
2023-03-06T14:32:38.367Z,6
2023-03-06T14:33:38.297Z,5
2023-03-06T14:34:38.318Z,3
2023-03-06T14:35:38.397Z,5
2023-03-06T14:36:38.311Z,4
2023-03-06T14:37:38.322Z,3
2023-03-06T14:39:38.320Z,5
2023-03-06T14:40:38.303Z,3
2023-03-06T14:42:38.343Z,4
2023-03-06T14:43:38.297Z,5
2023-03-06T14:44:38.301Z,4
2023-03-06T14:45:38.295Z,4
2023-03-06T14:47:38.297Z,6
2023-03-06T14:50:39.835Z,6
2023-03-06T14:51:38.288Z,8
2023-03-06T14:52:38.304Z,8
2023-03-06T14:53:38.313Z,8
2023-03-06T14:55:38.300Z,9
2023-03-06T14:56:38.302Z,6
2023-03-06T14:57:38.309Z,6
2023-03-06T14:58:38.297Z,7
2023-03-06T15:00:38.399Z,5
2023-03-06T15:01:38.427Z,5
2023-03-06T15:03:38.355Z,6
2023-03-06T15:04:38.297Z,8
2023-03-06T15:05:38.296Z,6
2023-03-06T15:06:38.429Z,7
2023-03-06T15:07:38.373Z,8
2023-03-06T15:08:38.299Z,7
2023-03-06T15:09:38.293Z,8
2023-03-06T15:11:38.291Z,9
2023-03-06T15:12:38.310Z,8
2023-03-06T15:13:38.296Z,7
2023-03-06T15:14:38.317Z,7
2023-03-06T15:16:38.521Z,10
2023-03-06T15:17:38.336Z,8
2023-03-06T15:18:38.301Z,8
2023-03-06T15:19:38.290Z,11
2023-03-06T15:22:38.336Z,14
2023-03-06T15:23:38.291Z,12
2023-03-06T15:24:38.298Z,16
2023-03-06T15:25:38.295Z,15
2023-03-06T15:26:38.295Z,19
2023-03-06T15:27:38.294Z,20
2023-03-06T15:29:38.296Z,22
2023-03-06T15:30:38.301Z,27
2023-03-06T15:32:38.468Z,26
2023-03-06T15:33:38.310Z,27
2023-03-06T15:34:38.299Z,27
2023-03-06T15:35:38.481Z,28
2023-03-06T15:36:38.293Z,30
2023-03-06T15:37:38.342Z,27
2023-03-06T15:38:38.289Z,27
2023-03-06T15:39:38.307Z,27
2023-03-06T15:40:38.310Z,28
2023-03-06T15:42:38.365Z,26
2023-03-06T15:43:38.312Z,28
2023-03-06T15:45:38.355Z,26